Time;durP1;ratioP1;P1;durP2;ratioP2;P2;SDS_P1;SDS_P2;PMS_P1;PMS_P2;Temp;Humidity;BMP_temperature;BMP_pressure;BME280_temperature;BME280_humidity;BME280_pressure;Samples;Min_cycle;Max_cycle;Signal;HPM_P1;HPM_P2
2020/12/04 00:00:59;;;;;;;23.83;11.93;;;;;;;-1.22;100.00;96227.38;3635809;81;44216;-22
2020/12/04 00:06:05;;;;;;;24.53;12.13;;;;;;;-1.21;100.00;96225.94;3787458;76;43286;-22
2020/12/04 00:11:10;;;;;;;27.27;13.23;;;;;;;-1.16;100.00;96220.23;3716746;77;44185;-22
2020/12/04 00:16:16;;;;;;;25.43;13.07;;;;;;;-1.24;100.00;96224.89;3718896;77;42999;-22
2020/12/04 00:21:23;;;;;;;23.87;12.03;;;;;;;-1.26;100.00;96222.88;3688428;79;43987;-22
2020/12/04 00:26:30;;;;;;;27.97;12.70;;;;;;;-1.21;100.00;96218.48;3759689;79;42927;-22
2020/12/04 00:31:36;;;;;;;25.77;12.60;;;;;;;-1.19;100.00;96212.11;3686104;80;44793;-22
2020/12/04 00:36:45;;;;;;;30.20;14.40;;;;;;;-1.27;100.00;96214.13;3781140;77;43345;-22
2020/12/04 00:41:50;;;;;;;30.37;14.03;;;;;;;-1.34;100.00;96209.05;3808659;77;43294;-22
2020/12/04 00:46:58;;;;;;;30.33;13.53;;;;;;;-1.38;100.00;96210.33;3722096;79;44078;-22
2020/12/04 00:52:04;;;;;;;28.40;13.50;;;;;;;-1.45;100.00;96197.33;3787490;77;43716;-22
2020/12/04 00:57:11;;;;;;;28.00;13.93;;;;;;;-1.46;100.00;96185.09;3776999;77;43369;-22
2020/12/04 01:02:19;;;;;;;30.33;13.53;;;;;;;-1.41;100.00;96182.37;3758949;79;26809;-22
2020/12/04 01:07:25;;;;;;;27.93;12.90;;;;;;;-1.43;100.00;96171.14;3704779;78;44463;-22
2020/12/04 01:12:30;;;;;;;30.03;13.63;;;;;;;-1.42;100.00;96171.97;3700927;79;43527;-22
2020/12/04 01:17:36;;;;;;;25.43;12.57;;;;;;;-1.46;100.00;96175.37;3655178;80;44279;-22
2020/12/04 01:22:42;;;;;;;26.10;12.70;;;;;;;-1.51;100.00;96171.50;3735124;79;43702;-22
2020/12/04 01:27:48;;;;;;;25.60;12.63;;;;;;;-1.52;100.00;96156.62;3661700;80;43665;-22
2020/12/04 01:32:54;;;;;;;25.30;12.33;;;;;;;-1.50;100.00;96151.54;3701018;80;44030;-22
2020/12/04 01:38:00;;;;;;;25.63;12.33;;;;;;;-1.43;100.00;96151.81;3638169;80;44003;-21
2020/12/04 01:43:07;;;;;;;24.07;11.53;;;;;;;-1.42;100.00;96145.55;3701197;80;43236;-21
2020/12/04 01:48:14;;;;;;;25.40;10.70;;;;;;;-1.36;100.00;96151.60;3650436;80;44083;-21
2020/12/04 01:53:20;;;;;;;23.93;11.67;;;;;;;-1.35;100.00;96145.31;3681752;79;43266;-21
2020/12/04 01:58:26;;;;;;;24.33;11.33;;;;;;;-1.33;100.00;96140.73;3681579;79;44027;-21
2020/12/04 02:03:34;;;;;;;25.77;11.33;;;;;;;-1.32;100.00;96139.76;3705517;78;44169;-21
2020/12/04 02:08:43;;;;;;;23.00;10.53;;;;;;;-1.26;100.00;96123.82;3762825;77;43451;-22
2020/12/04 02:13:52;;;;;;;20.70;10.10;;;;;;;-1.22;100.00;96109.36;3760250;79;44342;-21
2020/12/04 02:18:58;;;;;;;21.13;10.87;;;;;;;-1.15;100.00;96105.65;3772713;77;43721;-21
2020/12/04 02:24:06;;;;;;;18.43;8.87;;;;;;;-1.14;100.00;96093.60;3796875;77;43346;-21
2020/12/04 02:29:12;;;;;;;20.27;10.07;;;;;;;-1.13;100.00;96086.53;3756368;77;43753;-21
2020/12/04 02:34:18;;;;;;;21.37;9.30;;;;;;;-1.06;100.00;96071.73;3760525;78;44026;-21
2020/12/04 02:39:25;;;;;;;19.63;9.67;;;;;;;-1.05;100.00;96072.09;3765231;77;43365;-21
2020/12/04 02:44:32;;;;;;;18.63;9.57;;;;;;;-0.97;100.00;96062.92;3761128;79;43423;-21
2020/12/04 02:49:37;;;;;;;19.87;9.13;;;;;;;-0.90;100.00;96053.09;3760811;79;44705;-21
2020/12/04 02:54:43;;;;;;;17.03;8.60;;;;;;;-0.89;100.00;96046.33;3819603;77;43437;-21
2020/12/04 02:59:49;;;;;;;19.47;9.57;;;;;;;-0.84;100.00;96032.66;3784532;77;44379;-21
2020/12/04 03:04:55;;;;;;;19.00;8.97;;;;;;;-0.81;100.00;96021.80;3758102;77;44066;-21
2020/12/04 03:10:01;;;;;;;15.73;8.27;;;;;;;-0.81;100.00;96016.02;3763742;77;44035;-21
2020/12/04 03:15:07;;;;;;;17.57;8.87;;;;;;;-0.72;100.00;96014.29;3760331;78;43471;-21
2020/12/04 03:20:13;;;;;;;18.93;8.70;;;;;;;-0.68;99.63;96024.91;3774782;77;44117;-21
2020/12/04 03:25:19;;;;;;;15.77;8.10;;;;;;;-0.63;99.84;96026.59;3822768;77;43474;-21
2020/12/04 03:30:24;;;;;;;15.37;8.00;;;;;;;-0.59;98.25;96027.16;3749025;77;43697;-22
2020/12/04 03:35:31;;;;;;;16.17;8.20;;;;;;;-0.52;99.14;96016.77;3780132;77;43366;-21
2020/12/04 03:40:38;;;;;;;15.60;8.07;;;;;;;-0.50;98.52;96003.77;3761341;79;44014;-21
2020/12/04 03:45:44;;;;;;;15.10;7.63;;;;;;;-0.40;97.16;95998.37;3760869;79;43677;-21
2020/12/04 03:50:50;;;;;;;15.23;8.10;;;;;;;-0.38;98.15;95995.59;3773147;77;43637;-22
2020/12/04 03:55:56;;;;;;;15.87;7.90;;;;;;;-0.34;98.44;95997.77;3817617;77;44058;-22
2020/12/04 04:01:03;;;;;;;18.00;8.60;;;;;;;-0.30;98.71;96006.23;3746808;79;43608;-23
2020/12/04 04:06:10;;;;;;;14.73;7.90;;;;;;;-0.28;95.96;96008.23;3721223;77;44082;-23
2020/12/04 04:11:18;;;;;;;17.17;7.87;;;;;;;-0.25;96.87;95992.54;3674654;79;43698;-23
2020/12/04 04:16:24;;;;;;;15.77;7.87;;;;;;;-0.20;97.97;95988.95;3675335;80;42596;-23
2020/12/04 04:21:31;;;;;;;14.27;7.97;;;;;;;-0.21;97.21;95997.36;3681940;79;43951;-24
2020/12/04 04:26:36;;;;;;;14.63;7.80;;;;;;;-0.17;98.29;95999.20;3690336;80;43454;-22
2020/12/04 04:31:42;;;;;;;15.47;8.03;;;;;;;-0.16;99.51;95993.78;3696142;80;44063;-22
2020/12/04 04:36:48;;;;;;;14.17;7.77;;;;;;;-0.15;98.84;95987.98;3671622;79;44046;-22
2020/12/04 04:41:59;;;;;;;18.23;8.57;;;;;;;-0.15;98.43;95982.69;3752586;76;43442;-23
2020/12/04 04:47:07;;;;;;;14.43;7.90;;;;;;;-0.11;99.33;95973.94;3701936;79;43717;-22
2020/12/04 04:52:15;;;;;;;16.20;8.10;;;;;;;-0.10;100.00;95971.16;3731137;79;43426;-22
2020/12/04 04:57:24;;;;;;;15.67;7.97;;;;;;;-0.08;100.00;95973.16;3736382;79;43327;-22
2020/12/04 05:02:31;;;;;;;15.73;7.50;;;;;;;-0.07;100.00;95978.80;3703224;80;43991;-22
2020/12/04 05:07:37;;;;;;;17.63;8.30;;;;;;;-0.07;99.50;95965.56;3710958;77;43708;-23
2020/12/04 05:12:47;;;;;;;15.63;7.77;;;;;;;-0.02;99.24;95950.03;3715766;78;43958;-23
2020/12/04 05:18:11;;;;;;;16.13;7.80;;;;;;;0.00;98.60;95931.37;3741402;78;44070;-23
2020/12/04 05:23:18;;;;;;;15.23;8.40;;;;;;;0.04;99.14;95919.45;3744378;79;43998;-23
2020/12/04 05:28:27;;;;;;;17.17;8.10;;;;;;;0.05;100.00;95919.80;3730922;79;43446;-23
2020/12/04 05:33:33;;;;;;;16.63;8.93;;;;;;;0.07;99.44;95922.28;3701136;79;43770;-22
2020/12/04 05:38:40;;;;;;;14.73;7.83;;;;;;;0.09;98.27;95914.53;3698849;79;43069;-23
2020/12/04 05:43:46;;;;;;;17.30;8.37;;;;;;;0.11;98.90;95914.37;3701116;79;43729;-26
2020/12/04 05:49:00;;;;;;;15.43;8.13;;;;;;;0.12;99.59;95912.05;3727463;78;44066;-27
2020/12/04 05:54:07;;;;;;;18.47;8.80;;;;;;;0.14;99.91;95894.20;3725234;78;44428;-26
2020/12/04 05:59:15;;;;;;;20.90;8.70;;;;;;;0.14;100.00;95909.58;3702223;80;43768;-26
2020/12/04 06:04:24;;;;;;;17.27;8.73;;;;;;;0.16;99.35;95918.70;3703163;80;44100;-26
2020/12/04 06:09:30;;;;;;;17.03;8.00;;;;;;;0.22;100.00;95931.80;3704578;78;43936;-26
2020/12/04 06:14:36;;;;;;;19.00;8.90;;;;;;;0.27;98.59;95925.52;3703033;80;43350;-26
2020/12/04 06:19:43;;;;;;;17.87;8.70;;;;;;;0.26;99.23;95926.03;3749217;78;44152;-26
2020/12/04 06:25:05;;;;;;;17.70;8.57;;;;;;;0.28;98.82;95932.48;3777322;78;44177;-26
2020/12/04 06:30:14;;;;;;;15.83;8.20;;;;;;;0.27;99.15;95927.70;3711716;78;43678;-26
2020/12/04 06:35:41;;;;;;;16.40;8.57;;;;;;;0.24;100.00;95939.92;3702907;80;44568;-26
2020/12/04 06:40:47;;;;;;;15.80;8.30;;;;;;;0.23;99.27;95940.91;3702734;80;43517;-26
2020/12/04 06:45:52;;;;;;;18.53;8.50;;;;;;;0.27;99.74;95932.14;3702610;80;44620;-26
2020/12/04 06:50:59;;;;;;;18.13;8.70;;;;;;;0.26;100.00;95926.51;3703075;79;44086;-25
2020/12/04 06:56:06;;;;;;;17.90;8.97;;;;;;;0.30;99.62;95927.35;3710817;78;44053;-26
2020/12/04 07:01:12;;;;;;;16.87;8.77;;;;;;;0.32;100.00;95919.75;3739704;78;43681;-25
2020/12/04 07:06:24;;;;;;;17.80;9.27;;;;;;;0.32;99.67;95931.66;3705996;78;44057;-26
2020/12/04 07:11:31;;;;;;;19.63;8.37;;;;;;;0.33;100.00;95924.91;3703048;80;43446;-26
2020/12/04 07:16:41;;;;;;;16.53;7.93;;;;;;;0.36;99.93;95935.66;3702642;80;43731;-26
2020/12/04 07:21:46;;;;;;;16.70;8.60;;;;;;;0.38;100.00;95952.23;3763995;78;43720;-25
2020/12/04 07:26:55;;;;;;;17.03;8.53;;;;;;;0.39;99.73;95955.22;3702819;80;43401;-26
2020/12/04 07:32:01;;;;;;;16.03;8.17;;;;;;;0.39;100.00;95967.95;3739213;78;43392;-26
2020/12/04 07:37:08;;;;;;;18.93;9.20;;;;;;;0.40;100.00;95972.27;3735392;78;43258;-26
2020/12/04 07:42:16;;;;;;;16.53;8.23;;;;;;;0.44;99.72;95983.37;3703236;80;43052;-25
2020/12/04 07:47:23;;;;;;;15.53;8.37;;;;;;;0.48;96.44;95990.02;3702724;80;43470;-25
2020/12/04 07:52:31;;;;;;;18.27;8.87;;;;;;;0.52;97.97;95985.23;3703645;79;43382;-26
2020/12/04 07:57:41;;;;;;;17.60;9.30;;;;;;;0.54;97.60;95979.28;3702820;80;43293;-26
2020/12/04 08:02:47;;;;;;;16.37;8.20;;;;;;;0.54;98.54;95971.34;3703045;80;43382;-25
2020/12/04 08:07:54;;;;;;;15.83;8.73;;;;;;;0.57;98.14;95977.65;3732465;77;44046;-25
2020/12/04 08:13:00;;;;;;;19.60;9.03;;;;;;;0.60;98.54;95971.53;3713319;78;44422;-25
2020/12/04 08:18:10;;;;;;;16.63;8.83;;;;;;;0.66;97.69;95981.14;3719178;79;44058;-26
2020/12/04 08:23:21;;;;;;;16.70;8.70;;;;;;;0.66;95.33;95980.66;3612266;81;44047;-25
2020/12/04 08:28:29;;;;;;;16.67;8.63;;;;;;;0.76;96.92;95972.59;3745823;78;43308;-27
2020/12/04 08:33:41;;;;;;;15.57;8.40;;;;;;;0.77;96.18;95968.92;3714055;80;44062;-25
2020/12/04 08:38:54;;;;;;;15.50;8.30;;;;;;;0.83;95.89;95970.09;3720844;78;43435;-26
2020/12/04 08:44:00;;;;;;;16.90;9.13;;;;;;;0.87;94.25;95968.32;3756533;78;44027;-26
2020/12/04 08:49:05;;;;;;;15.47;8.33;;;;;;;0.95;93.88;95983.91;3714282;80;43547;-26
2020/12/04 08:54:11;;;;;;;17.97;8.77;;;;;;;0.98;92.44;95996.84;3758253;78;43436;-26
2020/12/04 08:59:17;;;;;;;15.63;8.70;;;;;;;1.08;93.61;95999.67;3736604;78;43778;-26
2020/12/04 09:04:23;;;;;;;17.07;9.03;;;;;;;1.12;92.90;96014.75;3713877;80;43519;-26
2020/12/04 09:09:28;;;;;;;18.60;9.23;;;;;;;1.16;92.30;96011.31;3741746;78;44067;-27
2020/12/04 09:14:35;;;;;;;16.57;8.50;;;;;;;1.17;91.56;96010.31;3786292;77;43592;-26
2020/12/04 09:19:41;;;;;;;17.33;9.40;;;;;;;1.15;91.88;96011.78;3785920;77;43705;-26
2020/12/04 09:24:46;;;;;;;18.00;9.27;;;;;;;1.10;91.95;96001.33;3813648;77;43438;-26
2020/12/04 09:29:52;;;;;;;18.87;9.43;;;;;;;1.12;93.43;96009.45;3777855;77;44136;-26
2020/12/04 09:34:58;;;;;;;19.17;10.07;;;;;;;1.18;94.94;96003.52;3767976;79;43855;-26
2020/12/04 09:40:07;;;;;;;17.50;9.07;;;;;;;1.26;95.57;95999.21;3769587;77;43370;-27
2020/12/04 09:45:15;;;;;;;16.47;8.43;;;;;;;1.30;94.73;96005.86;3761311;79;44056;-26
2020/12/04 09:50:21;;;;;;;18.30;10.10;;;;;;;1.31;94.37;96008.34;3799426;77;44211;-27
2020/12/04 09:55:27;;;;;;;19.67;9.93;;;;;;;1.31;94.75;96015.48;3771014;77;43334;-27
2020/12/04 10:00:35;;;;;;;15.23;8.77;;;;;;;1.31;94.60;96018.13;3761572;79;43212;-27
2020/12/04 10:05:41;;;;;;;17.07;9.13;;;;;;;1.38;94.92;96015.15;3762032;77;43880;-27
2020/12/04 10:10:47;;;;;;;18.67;10.10;;;;;;;1.37;93.60;96017.47;3761383;79;44392;-27
2020/12/04 10:15:53;;;;;;;16.27;8.50;;;;;;;1.36;93.68;96001.22;3761183;79;44146;-26
2020/12/04 10:20:59;;;;;;;17.07;8.50;;;;;;;1.47;96.34;95987.63;3789691;77;43367;-26
2020/12/04 10:26:05;;;;;;;15.03;8.23;;;;;;;1.50;95.09;95985.98;3808422;77;43440;-27
2020/12/04 10:31:12;;;;;;;16.70;8.87;;;;;;;1.54;93.59;95981.17;3761422;79;44042;-27
2020/12/04 10:36:17;;;;;;;18.70;8.87;;;;;;;1.62;92.97;95985.66;3769857;77;44040;-27
2020/12/04 10:41:23;;;;;;;15.13;8.13;;;;;;;1.68;93.03;95979.70;3728994;79;43976;-27
2020/12/04 10:46:29;;;;;;;17.80;8.23;;;;;;;1.71;93.20;95958.62;3761423;79;44110;-27
2020/12/04 10:51:35;;;;;;;15.30;7.87;;;;;;;1.80;93.59;95955.81;3773502;77;44464;-27
2020/12/04 10:56:42;;;;;;;14.70;7.60;;;;;;;1.84;94.45;95944.36;3805075;77;43367;-27
2020/12/04 11:01:52;;;;;;;17.13;8.73;;;;;;;1.83;91.08;95942.19;3795974;77;43723;-27
2020/12/04 11:06:57;;;;;;;17.03;7.77;;;;;;;1.99;93.02;95939.19;3754158;77;44082;-27
2020/12/04 11:12:03;;;;;;;13.63;7.47;;;;;;;2.14;92.80;95929.53;3718230;78;44212;-27
2020/12/04 11:17:09;;;;;;;13.03;7.90;;;;;;;2.30;91.98;95927.81;3702994;80;43312;-28
2020/12/04 11:22:15;;;;;;;15.47;8.03;;;;;;;2.40;93.22;95913.85;3744834;78;43502;-27
2020/12/04 11:27:21;;;;;;;14.57;8.10;;;;;;;2.46;94.47;95902.52;3728708;79;44069;-26
2020/12/04 11:32:27;;;;;;;11.53;7.03;;;;;;;2.55;93.93;95888.70;3719991;78;44003;-27
2020/12/04 11:37:32;;;;;;;14.63;7.63;;;;;;;2.63;92.25;95878.53;3731911;78;43733;-27
2020/12/04 11:42:41;;;;;;;13.30;6.77;;;;;;;2.69;93.27;95883.14;3702347;80;44442;-28
2020/12/04 11:47:47;;;;;;;14.00;7.43;;;;;;;2.82;90.83;95889.72;3702909;80;43770;-28
2020/12/04 11:52:53;;;;;;;14.93;8.30;;;;;;;2.91;88.52;95916.58;3730465;78;43422;-27
2020/12/04 11:57:59;;;;;;;14.13;7.70;;;;;;;3.15;88.84;95914.77;3717473;79;43356;-28
2020/12/04 12:03:05;;;;;;;12.90;7.90;;;;;;;3.31;88.96;95909.34;3702763;80;44988;-28
2020/12/04 12:08:13;;;;;;;13.40;7.30;;;;;;;3.47;83.84;95912.38;3739017;78;43994;-28
2020/12/04 12:13:19;;;;;;;11.77;6.57;;;;;;;3.64;82.22;95902.42;3697779;77;43854;-28
2020/12/04 12:18:25;;;;;;;13.13;6.63;;;;;;;3.79;84.31;95901.63;3718972;78;44130;-27
2020/12/04 12:23:31;;;;;;;12.07;7.00;;;;;;;3.91;83.40;95890.86;3782420;78;43694;-27
2020/12/04 12:28:36;;;;;;;10.57;6.30;;;;;;;3.98;84.54;95893.11;3731539;78;44077;-28
2020/12/04 12:33:42;;;;;;;13.23;7.10;;;;;;;4.13;83.51;95891.78;3720698;80;43757;-27
2020/12/04 12:38:48;;;;;;;11.90;6.93;;;;;;;4.37;83.76;95883.70;3733410;78;44095;-27
2020/12/04 12:43:53;;;;;;;12.70;7.10;;;;;;;4.51;79.27;95895.35;3772558;78;43361;-28
2020/12/04 12:48:59;;;;;;;10.60;6.70;;;;;;;4.64;77.41;95904.86;3714981;80;44098;-28
2020/12/04 12:54:05;;;;;;;11.37;6.37;;;;;;;4.90;75.77;95915.02;3764022;78;43584;-28
2020/12/04 12:59:11;;;;;;;10.43;6.53;;;;;;;5.12;74.62;95912.38;3724667;78;44080;-27
2020/12/04 13:04:17;;;;;;;12.13;6.90;;;;;;;5.30;75.56;95903.13;3720768;80;44177;-28
2020/12/04 13:09:24;;;;;;;11.60;7.20;;;;;;;5.62;76.29;95894.27;3734300;78;43772;-28
2020/12/04 13:14:29;;;;;;;11.00;6.77;;;;;;;5.59;75.48;95893.30;3761757;77;44410;-27
2020/12/04 13:19:35;;;;;;;13.83;7.77;;;;;;;5.71;75.22;95890.43;3793043;77;44124;-27
2020/12/04 13:24:41;;;;;;;12.10;7.83;;;;;;;5.69;76.08;95891.16;3810553;77;43368;-27
2020/12/04 13:29:46;;;;;;;13.10;7.30;;;;;;;5.41;76.65;95894.60;3761534;79;43208;-28
2020/12/04 13:34:52;;;;;;;12.60;7.70;;;;;;;5.07;78.61;95905.45;3761284;79;43715;-28
2020/12/04 13:39:59;;;;;;;11.90;7.30;;;;;;;4.83;80.15;95907.45;3774052;77;43322;-27
2020/12/04 13:45:06;;;;;;;13.97;8.17;;;;;;;4.53;81.72;95907.48;3761294;79;43492;-27
2020/12/04 13:50:11;;;;;;;14.63;8.07;;;;;;;4.34;82.35;95900.05;3783969;77;43447;-27
2020/12/04 13:55:18;;;;;;;13.83;8.40;;;;;;;4.10;82.45;95904.16;3779057;77;43746;-28
2020/12/04 14:00:24;;;;;;;13.40;8.13;;;;;;;3.94;82.64;95894.47;3740514;79;43704;-27
2020/12/04 14:05:31;;;;;;;13.97;7.60;;;;;;;3.82;83.36;95901.28;3761457;79;43823;-27
2020/12/04 14:10:37;;;;;;;16.07;8.03;;;;;;;3.74;84.72;95909.32;3775187;77;43431;-27
2020/12/04 14:15:43;;;;;;;14.90;8.33;;;;;;;3.61;83.59;95917.41;3761401;79;43686;-27
2020/12/04 14:20:49;;;;;;;15.70;8.20;;;;;;;3.48;85.08;95915.86;3802005;77;43412;-26
2020/12/04 14:25:55;;;;;;;14.77;8.60;;;;;;;3.35;84.63;95905.30;3803826;77;44445;-26
2020/12/04 14:31:01;;;;;;;15.70;7.87;;;;;;;3.17;85.34;95916.76;3772875;77;43702;-26
2020/12/04 14:36:07;;;;;;;12.87;8.13;;;;;;;3.09;87.58;95914.98;3766564;77;43282;-27
2020/12/04 14:41:14;;;;;;;15.00;8.57;;;;;;;2.91;87.75;95922.73;3769304;77;43055;-26
2020/12/04 14:46:19;;;;;;;14.83;8.40;;;;;;;2.86;88.47;95923.75;3760889;79;44067;-26
2020/12/04 14:51:27;;;;;;;14.57;8.47;;;;;;;2.75;89.51;95918.34;3789257;77;43346;-26
2020/12/04 14:56:33;;;;;;;14.93;8.10;;;;;;;2.69;90.69;95927.52;3788679;77;43866;-27
2020/12/04 15:01:39;;;;;;;13.27;7.97;;;;;;;2.60;90.74;95950.63;3788434;77;43712;-27
2020/12/04 15:06:47;;;;;;;12.83;7.50;;;;;;;2.52;91.21;95952.00;3793019;77;43564;-27
2020/12/04 15:11:54;;;;;;;15.47;8.60;;;;;;;2.50;91.10;95957.47;3799490;77;44097;-27
2020/12/04 15:17:00;;;;;;;17.10;8.20;;;;;;;2.43;91.13;95945.37;3817318;77;43369;-26
2020/12/04 15:22:06;;;;;;;15.80;8.40;;;;;;;2.39;91.37;95944.56;3788999;77;43722;-26
2020/12/04 15:27:11;;;;;;;15.80;8.50;;;;;;;2.33;91.71;95934.11;3784020;77;43713;-26
2020/12/04 15:32:17;;;;;;;14.50;8.30;;;;;;;2.27;90.78;95919.69;3797442;77;44641;-26
2020/12/04 15:37:23;;;;;;;13.87;7.90;;;;;;;2.30;90.15;95931.31;3787231;77;43689;-27
2020/12/04 15:42:31;;;;;;;14.67;8.90;;;;;;;2.25;91.52;95943.45;3796783;77;44115;-22
2020/12/04 15:47:40;;;;;;;14.10;8.30;;;;;;;2.17;91.99;95942.96;3779866;75;26383;-22
2020/12/04 15:52:45;;;;;;;18.03;8.47;;;;;;;2.13;92.57;95955.76;3798408;77;43714;-22
2020/12/04 15:57:51;;;;;;;15.03;8.57;;;;;;;2.05;92.30;95954.45;3785605;77;43670;-22
2020/12/04 16:02:57;;;;;;;15.23;8.67;;;;;;;2.05;92.55;95962.91;3788770;77;44054;-22
2020/12/04 16:08:03;;;;;;;16.00;8.80;;;;;;;2.06;91.74;95951.29;3794829;77;43215;-22
2020/12/04 16:13:09;;;;;;;15.43;9.00;;;;;;;2.03;92.71;95948.48;3796282;77;44034;-22
2020/12/04 16:18:14;;;;;;;16.07;9.17;;;;;;;2.00;94.36;95949.62;3760179;78;43305;-23
2020/12/04 16:23:20;;;;;;;15.70;8.57;;;;;;;1.97;95.30;95950.47;3764542;78;44038;-22
2020/12/04 16:28:26;;;;;;;16.97;9.63;;;;;;;1.92;95.82;95949.64;3712494;78;43960;-23
2020/12/04 16:33:34;;;;;;;16.03;9.23;;;;;;;1.88;96.42;95939.05;3718219;79;42856;-23
2020/12/04 16:38:40;;;;;;;15.83;9.10;;;;;;;1.84;96.89;95945.17;3722684;79;43695;-22
2020/12/04 16:43:46;;;;;;;17.73;9.30;;;;;;;1.79;97.79;95950.66;3723426;78;41721;-23
2020/12/04 16:48:51;;;;;;;17.50;9.40;;;;;;;1.74;98.13;95971.06;3722205;78;43180;-22
2020/12/04 16:53:59;;;;;;;15.00;8.90;;;;;;;1.76;97.79;95961.11;3729278;79;43709;-22
2020/12/04 16:59:06;;;;;;;15.90;9.13;;;;;;;1.81;97.48;95958.80;3721846;79;42910;-22
2020/12/04 17:04:12;;;;;;;18.37;10.03;;;;;;;1.81;97.68;95952.17;3726297;79;43143;-22
2020/12/04 17:09:19;;;;;;;17.30;9.60;;;;;;;1.83;97.98;95954.64;3718401;79;43578;-22
2020/12/04 17:14:26;;;;;;;17.70;9.43;;;;;;;1.85;97.74;95944.17;3728685;78;43357;-23
2020/12/04 17:19:33;;;;;;;14.70;9.03;;;;;;;1.84;98.17;95954.46;3730263;78;43733;-22
2020/12/04 17:24:39;;;;;;;17.00;9.37;;;;;;;1.81;98.84;95960.13;3725774;79;42777;-21
2020/12/04 17:29:45;;;;;;;16.87;9.70;;;;;;;1.74;99.08;95959.63;3726712;79;43689;-24
2020/12/04 17:34:51;;;;;;;16.43;9.40;;;;;;;1.71;98.67;95958.12;3722082;79;43684;-23
2020/12/04 17:39:58;;;;;;;18.07;9.97;;;;;;;1.73;98.98;95968.08;3720727;79;44062;-23
2020/12/04 17:45:05;;;;;;;16.63;10.13;;;;;;;1.74;99.03;95955.65;3707593;78;43724;-23
2020/12/04 17:50:11;;;;;;;17.50;10.10;;;;;;;1.75;99.31;95961.30;3723942;78;43336;-23
2020/12/04 17:55:18;;;;;;;15.23;9.27;;;;;;;1.76;98.88;95969.59;3750821;78;43469;-23
2020/12/04 18:00:24;;;;;;;17.77;10.27;;;;;;;1.79;98.81;95987.81;3700221;78;44039;-23
2020/12/04 18:05:30;;;;;;;15.53;9.47;;;;;;;1.77;98.63;95987.14;3645956;80;44046;-21
2020/12/04 18:10:37;;;;;;;19.90;10.60;;;;;;;1.77;99.16;95975.20;3705483;78;44144;-23
2020/12/04 18:15:43;;;;;;;17.47;9.60;;;;;;;1.76;99.17;95970.92;3769429;77;43305;-23
2020/12/04 18:20:50;;;;;;;16.67;9.70;;;;;;;1.74;99.82;95971.06;3803922;77;44106;-21
2020/12/04 18:25:56;;;;;;;19.00;10.57;;;;;;;1.78;99.52;95981.69;3810941;77;44065;-23
2020/12/04 18:31:03;;;;;;;16.00;9.43;;;;;;;1.80;99.43;95978.86;3796390;77;43266;-23
2020/12/04 18:36:13;;;;;;;20.37;10.17;;;;;;;1.78;99.96;95981.69;3804108;77;44068;-23
2020/12/04 18:41:21;;;;;;;18.93;10.53;;;;;;;1.77;99.79;95994.63;3785516;77;44062;-23
2020/12/04 18:46:27;;;;;;;18.47;10.23;;;;;;;1.73;99.90;95982.67;3794796;77;43490;-23
2020/12/04 18:51:33;;;;;;;18.37;10.97;;;;;;;1.73;100.00;95969.91;3755429;77;44083;-23
2020/12/04 18:56:40;;;;;;;16.20;9.90;;;;;;;1.75;99.44;95974.56;3755167;77;44406;-23
2020/12/04 19:01:46;;;;;;;16.73;9.83;;;;;;;1.77;99.09;95965.43;3747073;77;43373;-23
2020/12/04 19:06:52;;;;;;;16.23;9.43;;;;;;;1.78;99.17;95960.45;3758575;79;44103;-22
2020/12/04 19:11:59;;;;;;;15.93;10.00;;;;;;;1.77;99.96;95982.68;3794137;77;44026;-23
2020/12/04 19:17:05;;;;;;;17.77;10.37;;;;;;;1.71;100.00;95974.05;3807370;77;43717;-23
2020/12/04 19:22:11;;;;;;;17.73;10.30;;;;;;;1.71;100.00;95966.08;3748185;77;44018;-24
2020/12/04 19:27:17;;;;;;;16.57;9.73;;;;;;;1.74;100.00;95959.63;3774259;77;43388;-22
2020/12/04 19:32:23;;;;;;;17.13;10.33;;;;;;;1.81;100.00;95948.66;3761507;77;44105;-23
2020/12/04 19:37:29;;;;;;;18.20;10.67;;;;;;;1.83;100.00;95946.16;3759425;77;43669;-24
2020/12/04 19:42:36;;;;;;;17.70;10.60;;;;;;;1.84;100.00;95958.45;3635840;80;44067;-22
2020/12/04 19:47:43;;;;;;;17.80;10.93;;;;;;;1.83;100.00;95970.05;3699671;79;44081;-24
2020/12/04 19:52:49;;;;;;;18.00;10.20;;;;;;;1.84;100.00;95954.98;3698294;78;43736;-21
2020/12/04 19:57:57;;;;;;;18.53;10.43;;;;;;;1.90;100.00;95970.73;3765368;77;43188;-23
2020/12/04 20:03:03;;;;;;;17.80;10.40;;;;;;;1.93;100.00;95973.88;3640095;80;44753;-23
2020/12/04 20:08:11;;;;;;;17.63;10.90;;;;;;;1.98;100.00;95980.85;3697549;79;43732;-24
2020/12/04 20:13:17;;;;;;;17.97;10.63;;;;;;;1.98;100.00;95974.70;3700373;78;43453;-23
2020/12/04 20:18:23;;;;;;;16.93;10.57;;;;;;;1.92;100.00;95989.98;3630279;80;44071;-24
2020/12/04 20:23:30;;;;;;;19.27;11.87;;;;;;;1.84;100.00;95992.95;3690089;80;44398;-24
2020/12/04 20:28:37;;;;;;;19.10;11.13;;;;;;;1.78;100.00;95998.95;3695617;79;44058;-24
2020/12/04 20:33:43;;;;;;;17.70;11.17;;;;;;;1.67;100.00;95996.11;3694562;80;43700;-23
2020/12/04 20:38:49;;;;;;;18.27;11.20;;;;;;;1.65;100.00;95994.63;3692789;78;43692;-23
2020/12/04 20:43:55;;;;;;;18.50;11.30;;;;;;;1.67;100.00;95978.05;3757654;79;43725;-23
2020/12/04 20:49:01;;;;;;;18.03;11.27;;;;;;;1.74;100.00;96000.26;3697804;79;43756;-23
2020/12/04 20:54:07;;;;;;;17.97;10.77;;;;;;;1.79;100.00;95998.44;3696547;79;43380;-22
2020/12/04 20:59:13;;;;;;;20.47;11.57;;;;;;;1.79;100.00;95980.70;3698266;80;44805;-22
2020/12/04 21:04:19;;;;;;;17.63;10.60;;;;;;;1.79;100.00;95982.50;3696223;80;43709;-22
2020/12/04 21:09:26;;;;;;;19.20;11.30;;;;;;;1.72;100.00;95988.98;3693756;78;43324;-23
2020/12/04 21:14:32;;;;;;;20.93;12.17;;;;;;;1.54;100.00;95970.08;3704853;78;44073;-22
2020/12/04 21:19:38;;;;;;;19.27;11.60;;;;;;;1.52;100.00;95987.98;3719140;79;43381;-22
2020/12/04 21:24:44;;;;;;;19.53;11.63;;;;;;;1.49;100.00;95990.95;3763140;77;44435;-22
2020/12/04 21:29:50;;;;;;;18.63;11.10;;;;;;;1.59;100.00;96020.00;3759588;79;43396;-22
2020/12/04 21:34:55;;;;;;;22.23;11.97;;;;;;;1.64;100.00;96017.69;3759199;79;43353;-22
2020/12/04 21:40:02;;;;;;;17.50;10.87;;;;;;;1.65;100.00;95980.03;3758963;77;43668;-23
2020/12/04 21:45:08;;;;;;;19.20;10.90;;;;;;;1.70;100.00;95976.39;3759815;77;44031;-22
2020/12/04 21:50:14;;;;;;;20.20;11.83;;;;;;;1.71;100.00;95960.77;3762963;79;43366;-22
2020/12/04 21:55:20;;;;;;;18.33;11.40;;;;;;;1.56;100.00;95943.37;3758639;77;44032;-22
2020/12/04 22:00:26;;;;;;;21.93;12.90;;;;;;;1.46;100.00;95958.14;3759305;77;43082;-22
2020/12/04 22:05:33;;;;;;;23.43;12.60;;;;;;;1.21;100.00;95992.59;3759293;79;43726;-22
2020/12/04 22:10:39;;;;;;;26.33;13.10;;;;;;;1.17;100.00;96015.63;3757930;77;44059;-22
2020/12/04 22:15:45;;;;;;;21.77;12.87;;;;;;;1.12;100.00;96005.47;3747982;77;43658;-23
2020/12/04 22:20:50;;;;;;;21.67;12.40;;;;;;;1.17;100.00;96020.42;3708514;79;43693;-21
2020/12/04 22:25:56;;;;;;;24.80;13.20;;;;;;;1.20;100.00;96033.84;3698294;79;43383;-23
2020/12/04 22:31:02;;;;;;;27.23;13.90;;;;;;;1.10;100.00;96024.72;3701221;80;43693;-22
2020/12/04 22:36:08;;;;;;;23.67;13.03;;;;;;;0.96;100.00;96030.63;3700891;80;43741;-23
2020/12/04 22:41:15;;;;;;;25.53;14.50;;;;;;;0.53;100.00;96008.09;3716028;79;44043;-20
2020/12/04 22:46:22;;;;;;;22.67;13.63;;;;;;;0.64;100.00;95985.80;3700785;78;44079;-23
2020/12/04 22:51:29;;;;;;;23.67;12.13;;;;;;;0.80;100.00;95963.31;3701278;80;43385;-22
2020/12/04 22:56:39;;;;;;;27.00;14.30;;;;;;;0.93;100.00;95988.05;3710036;79;43250;-22
2020/12/04 23:01:45;;;;;;;26.07;13.73;;;;;;;0.87;100.00;95992.17;3701238;79;44469;-22
2020/12/04 23:06:52;;;;;;;24.13;13.57;;;;;;;0.89;100.00;95970.80;3701176;80;44161;-22
2020/12/04 23:11:58;;;;;;;27.90;14.63;;;;;;;0.98;100.00;95971.66;3699638;79;43389;-22
2020/12/04 23:17:06;;;;;;;26.10;13.93;;;;;;;0.96;100.00;95953.75;3721015;78;44454;-22
2020/12/04 23:22:12;;;;;;;25.63;13.20;;;;;;;0.99;100.00;95933.05;3759431;77;43415;-22
2020/12/04 23:27:18;;;;;;;24.37;13.83;;;;;;;0.99;100.00;95940.19;3754913;77;43452;-22
2020/12/04 23:32:25;;;;;;;23.43;12.70;;;;;;;0.88;100.00;95954.05;3759428;79;44091;-22
2020/12/04 23:37:32;;;;;;;26.47;13.20;;;;;;;0.68;100.00;95961.47;3759971;77;44197;-22
2020/12/04 23:42:39;;;;;;;22.87;12.60;;;;;;;0.36;100.00;95981.50;3806101;77;43468;-22
2020/12/04 23:47:46;;;;;;;22.30;12.40;;;;;;;0.18;100.00;95972.30;3783880;77;44031;-22